sensor_id;sensor_type;location;lat;lon;timestamp;P1;durP1;ratioP1;P2;durP2;ratioP2
31442;SDS011;18065;55.876;9.830;2022-11-27T00:01:40;1.30;;;1.10;;
31442;SDS011;18065;55.876;9.830;2022-11-27T00:04:09;1.48;;;1.08;;
31442;SDS011;18065;55.876;9.830;2022-11-27T00:06:41;1.48;;;1.10;;
31442;SDS011;18065;55.876;9.830;2022-11-27T00:09:10;1.48;;;1.17;;
31442;SDS011;18065;55.876;9.830;2022-11-27T00:11:41;1.98;;;1.17;;
31442;SDS011;18065;55.876;9.830;2022-11-27T00:14:10;1.73;;;1.05;;
31442;SDS011;18065;55.876;9.830;2022-11-27T00:16:42;2.08;;;1.05;;
31442;SDS011;18065;55.876;9.830;2022-11-27T00:19:11;1.30;;;1.00;;
31442;SDS011;18065;55.876;9.830;2022-11-27T00:21:40;1.65;;;1.40;;
31442;SDS011;18065;55.876;9.830;2022-11-27T00:24:09;2.10;;;1.30;;
31442;SDS011;18065;55.876;9.830;2022-11-27T00:26:37;1.58;;;1.17;;
31442;SDS011;18065;55.876;9.830;2022-11-27T00:29:06;1.35;;;1.00;;
31442;SDS011;18065;55.876;9.830;2022-11-27T00:31:36;1.20;;;1.10;;
31442;SDS011;18065;55.876;9.830;2022-11-27T00:34:08;1.45;;;1.10;;
31442;SDS011;18065;55.876;9.830;2022-11-27T00:36:38;1.38;;;0.98;;
31442;SDS011;18065;55.876;9.830;2022-11-27T00:39:07;1.90;;;0.90;;
31442;SDS011;18065;55.876;9.830;2022-11-27T00:41:36;1.30;;;0.80;;
31442;SDS011;18065;55.876;9.830;2022-11-27T00:44:05;1.90;;;1.23;;
31442;SDS011;18065;55.876;9.830;2022-11-27T00:46:34;2.25;;;1.35;;
31442;SDS011;18065;55.876;9.830;2022-11-27T00:49:05;1.45;;;1.15;;
31442;SDS011;18065;55.876;9.830;2022-11-27T00:54:07;1.10;;;1.00;;
31442;SDS011;18065;55.876;9.830;2022-11-27T00:56:36;1.17;;;0.90;;
31442;SDS011;18065;55.876;9.830;2022-11-27T00:59:06;1.40;;;1.00;;
31442;SDS011;18065;55.876;9.830;2022-11-27T01:01:36;1.13;;;0.93;;
31442;SDS011;18065;55.876;9.830;2022-11-27T01:04:11;1.10;;;0.93;;
31442;SDS011;18065;55.876;9.830;2022-11-27T01:06:42;1.58;;;1.20;;
31442;SDS011;18065;55.876;9.830;2022-11-27T01:09:11;1.55;;;1.00;;
31442;SDS011;18065;55.876;9.830;2022-11-27T01:11:41;1.77;;;1.13;;
31442;SDS011;18065;55.876;9.830;2022-11-27T01:14:10;2.72;;;1.30;;
31442;SDS011;18065;55.876;9.830;2022-11-27T01:16:41;1.35;;;1.10;;
31442;SDS011;18065;55.876;9.830;2022-11-27T01:19:13;1.75;;;1.10;;
31442;SDS011;18065;55.876;9.830;2022-11-27T01:21:44;1.95;;;1.10;;
31442;SDS011;18065;55.876;9.830;2022-11-27T01:24:14;1.17;;;0.88;;
31442;SDS011;18065;55.876;9.830;2022-11-27T01:26:43;1.63;;;1.00;;
31442;SDS011;18065;55.876;9.830;2022-11-27T01:29:12;1.30;;;1.05;;
31442;SDS011;18065;55.876;9.830;2022-11-27T01:31:41;1.85;;;1.15;;
31442;SDS011;18065;55.876;9.830;2022-11-27T01:34:15;1.27;;;0.95;;
31442;SDS011;18065;55.876;9.830;2022-11-27T01:36:45;1.13;;;0.90;;
31442;SDS011;18065;55.876;9.830;2022-11-27T01:39:15;1.77;;;1.20;;
31442;SDS011;18065;55.876;9.830;2022-11-27T01:41:45;1.10;;;0.98;;
31442;SDS011;18065;55.876;9.830;2022-11-27T01:47:17;1.40;;;1.20;;
31442;SDS011;18065;55.876;9.830;2022-11-27T01:49:57;0.98;;;0.82;;
31442;SDS011;18065;55.876;9.830;2022-11-27T01:52:44;1.40;;;0.90;;
31442;SDS011;18065;55.876;9.830;2022-11-27T01:55:16;0.85;;;0.85;;
31442;SDS011;18065;55.876;9.830;2022-11-27T01:57:51;1.50;;;1.15;;
31442;SDS011;18065;55.876;9.830;2022-11-27T02:00:23;1.25;;;1.10;;
31442;SDS011;18065;55.876;9.830;2022-11-27T02:02:52;1.40;;;1.10;;
31442;SDS011;18065;55.876;9.830;2022-11-27T02:05:24;1.45;;;1.10;;
31442;SDS011;18065;55.876;9.830;2022-11-27T02:07:54;2.33;;;0.90;;
31442;SDS011;18065;55.876;9.830;2022-11-27T02:10:26;1.27;;;1.00;;
31442;SDS011;18065;55.876;9.830;2022-11-27T02:13:04;1.10;;;1.00;;
31442;SDS011;18065;55.876;9.830;2022-11-27T02:15:37;1.38;;;0.90;;
31442;SDS011;18065;55.876;9.830;2022-11-27T02:18:17;1.67;;;0.98;;
31442;SDS011;18065;55.876;9.830;2022-11-27T02:20:56;1.25;;;1.00;;
31442;SDS011;18065;55.876;9.830;2022-11-27T02:23:39;1.83;;;1.20;;
31442;SDS011;18065;55.876;9.830;2022-11-27T02:26:25;1.67;;;0.90;;
31442;SDS011;18065;55.876;9.830;2022-11-27T02:29:16;1.30;;;1.10;;
31442;SDS011;18065;55.876;9.830;2022-11-27T02:31:50;1.30;;;1.02;;
31442;SDS011;18065;55.876;9.830;2022-11-27T02:34:26;1.58;;;1.05;;
31442;SDS011;18065;55.876;9.830;2022-11-27T02:37:04;1.50;;;1.00;;
31442;SDS011;18065;55.876;9.830;2022-11-27T02:39:41;1.77;;;1.00;;
31442;SDS011;18065;55.876;9.830;2022-11-27T02:42:18;1.10;;;0.95;;
31442;SDS011;18065;55.876;9.830;2022-11-27T02:44:52;1.40;;;1.00;;
31442;SDS011;18065;55.876;9.830;2022-11-27T02:47:25;1.30;;;1.00;;
31442;SDS011;18065;55.876;9.830;2022-11-27T02:49:55;1.48;;;1.23;;
31442;SDS011;18065;55.876;9.830;2022-11-27T02:52:25;1.10;;;1.00;;
31442;SDS011;18065;55.876;9.830;2022-11-27T02:54:55;1.50;;;0.98;;
31442;SDS011;18065;55.876;9.830;2022-11-27T02:57:27;1.33;;;1.20;;
31442;SDS011;18065;55.876;9.830;2022-11-27T03:00:00;0.85;;;0.82;;
31442;SDS011;18065;55.876;9.830;2022-11-27T03:02:31;1.10;;;1.00;;
31442;SDS011;18065;55.876;9.830;2022-11-27T03:05:04;1.35;;;1.00;;
31442;SDS011;18065;55.876;9.830;2022-11-27T03:07:36;1.25;;;1.00;;
31442;SDS011;18065;55.876;9.830;2022-11-27T03:10:08;1.85;;;1.10;;
31442;SDS011;18065;55.876;9.830;2022-11-27T03:12:39;1.33;;;0.95;;
31442;SDS011;18065;55.876;9.830;2022-11-27T03:15:11;1.45;;;1.00;;
31442;SDS011;18065;55.876;9.830;2022-11-27T03:17:44;1.17;;;1.02;;
31442;SDS011;18065;55.876;9.830;2022-11-27T03:20:20;1.10;;;0.90;;
31442;SDS011;18065;55.876;9.830;2022-11-27T03:22:52;1.10;;;1.00;;
31442;SDS011;18065;55.876;9.830;2022-11-27T03:25:22;1.20;;;0.80;;
31442;SDS011;18065;55.876;9.830;2022-11-27T03:27:52;1.50;;;1.20;;
31442;SDS011;18065;55.876;9.830;2022-11-27T03:30:27;1.05;;;0.95;;
31442;SDS011;18065;55.876;9.830;2022-11-27T03:32:55;1.25;;;0.98;;
31442;SDS011;18065;55.876;9.830;2022-11-27T03:35:25;1.10;;;1.00;;
31442;SDS011;18065;55.876;9.830;2022-11-27T03:37:58;1.10;;;0.93;;
31442;SDS011;18065;55.876;9.830;2022-11-27T03:40:28;1.10;;;1.00;;
31442;SDS011;18065;55.876;9.830;2022-11-27T03:43:07;1.42;;;0.95;;
31442;SDS011;18065;55.876;9.830;2022-11-27T03:45:48;0.88;;;0.82;;
31442;SDS011;18065;55.876;9.830;2022-11-27T03:48:21;0.80;;;0.70;;
31442;SDS011;18065;55.876;9.830;2022-11-27T03:51:00;2.15;;;1.05;;
31442;SDS011;18065;55.876;9.830;2022-11-27T03:53:37;0.70;;;0.70;;
31442;SDS011;18065;55.876;9.830;2022-11-27T03:56:17;1.00;;;0.80;;
31442;SDS011;18065;55.876;9.830;2022-11-27T03:58:53;1.27;;;1.02;;
31442;SDS011;18065;55.876;9.830;2022-11-27T04:01:28;0.70;;;0.70;;
31442;SDS011;18065;55.876;9.830;2022-11-27T04:03:58;0.80;;;0.80;;
31442;SDS011;18065;55.876;9.830;2022-11-27T04:06:27;0.90;;;0.80;;
31442;SDS011;18065;55.876;9.830;2022-11-27T04:08:55;0.80;;;0.70;;
31442;SDS011;18065;55.876;9.830;2022-11-27T04:11:24;0.80;;;0.80;;
31442;SDS011;18065;55.876;9.830;2022-11-27T04:13:53;1.08;;;0.90;;
31442;SDS011;18065;55.876;9.830;2022-11-27T04:16:22;2.25;;;0.93;;
31442;SDS011;18065;55.876;9.830;2022-11-27T04:18:53;0.77;;;0.77;;
31442;SDS011;18065;55.876;9.830;2022-11-27T04:21:22;1.60;;;0.80;;
31442;SDS011;18065;55.876;9.830;2022-11-27T04:23:50;0.98;;;0.85;;
31442;SDS011;18065;55.876;9.830;2022-11-27T04:26:19;1.02;;;0.70;;
31442;SDS011;18065;55.876;9.830;2022-11-27T04:28:48;0.90;;;0.80;;
31442;SDS011;18065;55.876;9.830;2022-11-27T04:31:17;1.00;;;0.90;;
31442;SDS011;18065;55.876;9.830;2022-11-27T04:33:46;1.58;;;1.10;;
31442;SDS011;18065;55.876;9.830;2022-11-27T04:36:17;2.70;;;0.88;;
31442;SDS011;18065;55.876;9.830;2022-11-27T04:38:46;0.80;;;0.80;;
31442;SDS011;18065;55.876;9.830;2022-11-27T04:41:14;0.80;;;0.80;;
31442;SDS011;18065;55.876;9.830;2022-11-27T04:43:43;1.33;;;0.90;;
31442;SDS011;18065;55.876;9.830;2022-11-27T04:46:12;0.93;;;0.80;;
31442;SDS011;18065;55.876;9.830;2022-11-27T04:48:43;1.25;;;0.90;;
31442;SDS011;18065;55.876;9.830;2022-11-27T04:51:12;1.17;;;0.77;;
31442;SDS011;18065;55.876;9.830;2022-11-27T04:53:46;0.80;;;0.80;;
31442;SDS011;18065;55.876;9.830;2022-11-27T04:56:20;1.02;;;0.88;;
31442;SDS011;18065;55.876;9.830;2022-11-27T04:58:52;0.77;;;0.70;;
31442;SDS011;18065;55.876;9.830;2022-11-27T05:01:23;1.27;;;0.90;;
31442;SDS011;18065;55.876;9.830;2022-11-27T05:03:52;1.05;;;0.80;;
31442;SDS011;18065;55.876;9.830;2022-11-27T05:06:20;1.13;;;0.68;;
31442;SDS011;18065;55.876;9.830;2022-11-27T05:08:52;0.95;;;0.88;;
31442;SDS011;18065;55.876;9.830;2022-11-27T05:11:24;1.42;;;0.90;;
31442;SDS011;18065;55.876;9.830;2022-11-27T05:13:53;0.80;;;0.80;;
31442;SDS011;18065;55.876;9.830;2022-11-27T05:16:42;1.02;;;0.93;;
31442;SDS011;18065;55.876;9.830;2022-11-27T05:19:15;1.00;;;0.85;;
31442;SDS011;18065;55.876;9.830;2022-11-27T05:21:45;1.55;;;1.00;;
31442;SDS011;18065;55.876;9.830;2022-11-27T05:24:24;1.20;;;1.00;;
31442;SDS011;18065;55.876;9.830;2022-11-27T05:26:54;1.60;;;1.40;;
31442;SDS011;18065;55.876;9.830;2022-11-27T05:29:24;1.02;;;0.90;;
31442;SDS011;18065;55.876;9.830;2022-11-27T05:31:56;1.40;;;1.30;;
31442;SDS011;18065;55.876;9.830;2022-11-27T05:34:25;1.52;;;1.17;;
31442;SDS011;18065;55.876;9.830;2022-11-27T05:36:53;1.23;;;1.10;;
31442;SDS011;18065;55.876;9.830;2022-11-27T05:39:28;1.20;;;1.10;;
31442;SDS011;18065;55.876;9.830;2022-11-27T05:42:02;1.10;;;1.00;;
31442;SDS011;18065;55.876;9.830;2022-11-27T05:44:31;1.38;;;1.10;;
31442;SDS011;18065;55.876;9.830;2022-11-27T05:47:00;1.67;;;1.00;;
31442;SDS011;18065;55.876;9.830;2022-11-27T05:49:28;1.25;;;1.15;;
31442;SDS011;18065;55.876;9.830;2022-11-27T05:51:57;2.28;;;1.17;;
31442;SDS011;18065;55.876;9.830;2022-11-27T05:54:28;1.38;;;1.15;;
31442;SDS011;18065;55.876;9.830;2022-11-27T05:56:57;1.10;;;0.98;;
31442;SDS011;18065;55.876;9.830;2022-11-27T05:59:25;1.88;;;1.05;;
31442;SDS011;18065;55.876;9.830;2022-11-27T06:01:54;1.48;;;1.30;;
31442;SDS011;18065;55.876;9.830;2022-11-27T06:04:23;1.75;;;1.05;;
31442;SDS011;18065;55.876;9.830;2022-11-27T06:06:51;2.40;;;1.05;;
31442;SDS011;18065;55.876;9.830;2022-11-27T06:09:20;1.17;;;1.08;;
31442;SDS011;18065;55.876;9.830;2022-11-27T06:11:51;1.40;;;1.17;;
31442;SDS011;18065;55.876;9.830;2022-11-27T06:14:20;2.53;;;1.13;;
31442;SDS011;18065;55.876;9.830;2022-11-27T06:16:49;3.03;;;1.10;;
31442;SDS011;18065;55.876;9.830;2022-11-27T06:19:18;1.25;;;1.00;;
31442;SDS011;18065;55.876;9.830;2022-11-27T06:21:46;1.13;;;1.02;;
31442;SDS011;18065;55.876;9.830;2022-11-27T06:24:15;1.83;;;1.10;;
31442;SDS011;18065;55.876;9.830;2022-11-27T06:26:44;2.08;;;1.17;;
31442;SDS011;18065;55.876;9.830;2022-11-27T06:29:15;1.20;;;1.05;;
31442;SDS011;18065;55.876;9.830;2022-11-27T06:31:44;1.67;;;1.05;;
31442;SDS011;18065;55.876;9.830;2022-11-27T06:34:12;1.75;;;1.30;;
31442;SDS011;18065;55.876;9.830;2022-11-27T06:36:41;0.95;;;0.85;;
31442;SDS011;18065;55.876;9.830;2022-11-27T06:39:10;1.25;;;1.08;;
31442;SDS011;18065;55.876;9.830;2022-11-27T06:41:39;1.48;;;1.13;;
31442;SDS011;18065;55.876;9.830;2022-11-27T06:44:08;1.63;;;1.10;;
31442;SDS011;18065;55.876;9.830;2022-11-27T06:46:39;1.33;;;1.23;;
31442;SDS011;18065;55.876;9.830;2022-11-27T06:49:08;1.27;;;1.08;;
31442;SDS011;18065;55.876;9.830;2022-11-27T06:51:37;2.05;;;1.17;;
31442;SDS011;18065;55.876;9.830;2022-11-27T06:54:05;1.50;;;1.15;;
31442;SDS011;18065;55.876;9.830;2022-11-27T06:56:34;1.40;;;1.20;;
31442;SDS011;18065;55.876;9.830;2022-11-27T06:59:03;1.92;;;1.15;;
31442;SDS011;18065;55.876;9.830;2022-11-27T07:01:31;1.13;;;0.98;;
31442;SDS011;18065;55.876;9.830;2022-11-27T07:04:03;1.65;;;1.20;;
31442;SDS011;18065;55.876;9.830;2022-11-27T07:06:32;1.00;;;0.90;;
31442;SDS011;18065;55.876;9.830;2022-11-27T07:09:03;2.05;;;1.48;;
31442;SDS011;18065;55.876;9.830;2022-11-27T07:11:41;1.67;;;1.27;;
31442;SDS011;18065;55.876;9.830;2022-11-27T07:14:12;1.77;;;1.27;;
31442;SDS011;18065;55.876;9.830;2022-11-27T07:16:47;1.13;;;1.00;;
31442;SDS011;18065;55.876;9.830;2022-11-27T07:19:21;1.15;;;0.90;;
31442;SDS011;18065;55.876;9.830;2022-11-27T07:21:49;1.70;;;1.20;;
31442;SDS011;18065;55.876;9.830;2022-11-27T07:24:18;1.92;;;1.20;;
31442;SDS011;18065;55.876;9.830;2022-11-27T07:26:47;1.67;;;1.15;;
31442;SDS011;18065;55.876;9.830;2022-11-27T07:29:15;1.23;;;1.10;;
31442;SDS011;18065;55.876;9.830;2022-11-27T07:31:44;1.50;;;1.20;;
31442;SDS011;18065;55.876;9.830;2022-11-27T07:34:15;1.65;;;1.30;;
31442;SDS011;18065;55.876;9.830;2022-11-27T07:36:46;1.33;;;1.23;;
31442;SDS011;18065;55.876;9.830;2022-11-27T07:39:15;1.58;;;1.35;;
31442;SDS011;18065;55.876;9.830;2022-11-27T07:41:44;1.55;;;1.13;;
31442;SDS011;18065;55.876;9.830;2022-11-27T07:44:12;1.80;;;1.30;;
31442;SDS011;18065;55.876;9.830;2022-11-27T07:46:41;1.50;;;1.30;;
31442;SDS011;18065;55.876;9.830;2022-11-27T07:49:10;1.40;;;1.27;;
31442;SDS011;18065;55.876;9.830;2022-11-27T07:51:41;1.88;;;1.17;;
31442;SDS011;18065;55.876;9.830;2022-11-27T07:54:12;1.35;;;1.20;;
31442;SDS011;18065;55.876;9.830;2022-11-27T07:56:41;1.88;;;1.20;;
31442;SDS011;18065;55.876;9.830;2022-11-27T07:59:09;2.08;;;1.40;;
31442;SDS011;18065;55.876;9.830;2022-11-27T08:01:38;2.03;;;1.60;;
31442;SDS011;18065;55.876;9.830;2022-11-27T08:04:07;2.90;;;2.10;;
31442;SDS011;18065;55.876;9.830;2022-11-27T08:06:35;1.73;;;1.27;;
31442;SDS011;18065;55.876;9.830;2022-11-27T08:09:04;1.75;;;1.50;;
31442;SDS011;18065;55.876;9.830;2022-11-27T08:11:35;1.90;;;1.50;;
31442;SDS011;18065;55.876;9.830;2022-11-27T08:14:06;2.20;;;1.52;;
31442;SDS011;18065;55.876;9.830;2022-11-27T08:16:35;3.55;;;1.77;;
31442;SDS011;18065;55.876;9.830;2022-11-27T08:19:04;1.88;;;1.67;;
31442;SDS011;18065;55.876;9.830;2022-11-27T08:21:33;1.85;;;1.67;;
31442;SDS011;18065;55.876;9.830;2022-11-27T08:24:01;2.40;;;1.90;;
31442;SDS011;18065;55.876;9.830;2022-11-27T08:26:30;2.42;;;1.75;;
31442;SDS011;18065;55.876;9.830;2022-11-27T08:29:02;1.92;;;1.42;;
31442;SDS011;18065;55.876;9.830;2022-11-27T08:31:31;2.40;;;1.90;;
31442;SDS011;18065;55.876;9.830;2022-11-27T08:34:00;1.65;;;1.48;;
31442;SDS011;18065;55.876;9.830;2022-11-27T08:36:28;1.50;;;1.40;;
31442;SDS011;18065;55.876;9.830;2022-11-27T08:38:57;2.47;;;1.67;;
31442;SDS011;18065;55.876;9.830;2022-11-27T08:41:25;2.10;;;1.83;;
31442;SDS011;18065;55.876;9.830;2022-11-27T08:43:54;3.30;;;2.17;;
31442;SDS011;18065;55.876;9.830;2022-11-27T08:46:26;2.25;;;1.58;;
31442;SDS011;18065;55.876;9.830;2022-11-27T08:48:54;2.78;;;1.90;;
31442;SDS011;18065;55.876;9.830;2022-11-27T08:51:23;2.00;;;1.40;;
31442;SDS011;18065;55.876;9.830;2022-11-27T08:53:51;2.30;;;2.03;;
31442;SDS011;18065;55.876;9.830;2022-11-27T08:56:21;2.83;;;1.80;;
31442;SDS011;18065;55.876;9.830;2022-11-27T08:58:51;2.67;;;2.13;;
31442;SDS011;18065;55.876;9.830;2022-11-27T09:01:21;1.95;;;1.75;;
31442;SDS011;18065;55.876;9.830;2022-11-27T09:03:54;2.00;;;1.70;;
31442;SDS011;18065;55.876;9.830;2022-11-27T09:06:24;2.13;;;1.75;;
31442;SDS011;18065;55.876;9.830;2022-11-27T09:08:54;2.80;;;1.75;;
31442;SDS011;18065;55.876;9.830;2022-11-27T09:11:24;2.78;;;1.95;;
31442;SDS011;18065;55.876;9.830;2022-11-27T09:13:53;3.33;;;2.10;;
31442;SDS011;18065;55.876;9.830;2022-11-27T09:16:22;2.42;;;2.20;;
31442;SDS011;18065;55.876;9.830;2022-11-27T09:18:51;2.95;;;2.08;;
31442;SDS011;18065;55.876;9.830;2022-11-27T09:21:26;3.20;;;1.95;;
31442;SDS011;18065;55.876;9.830;2022-11-27T09:23:56;1.95;;;1.60;;
31442;SDS011;18065;55.876;9.830;2022-11-27T09:26:27;2.45;;;1.75;;
31442;SDS011;18065;55.876;9.830;2022-11-27T09:28:56;2.20;;;1.90;;
31442;SDS011;18065;55.876;9.830;2022-11-27T09:31:26;1.58;;;1.42;;
31442;SDS011;18065;55.876;9.830;2022-11-27T09:33:57;2.38;;;1.90;;
31442;SDS011;18065;55.876;9.830;2022-11-27T09:36:26;2.00;;;1.58;;
31442;SDS011;18065;55.876;9.830;2022-11-27T09:38:54;2.15;;;1.70;;
31442;SDS011;18065;55.876;9.830;2022-11-27T09:41:32;3.13;;;1.95;;
31442;SDS011;18065;55.876;9.830;2022-11-27T09:44:11;3.15;;;2.00;;
31442;SDS011;18065;55.876;9.830;2022-11-27T09:46:48;2.55;;;1.77;;
31442;SDS011;18065;55.876;9.830;2022-11-27T09:49:21;1.80;;;1.45;;
31442;SDS011;18065;55.876;9.830;2022-11-27T09:51:55;2.05;;;1.67;;
31442;SDS011;18065;55.876;9.830;2022-11-27T09:54:30;2.35;;;1.73;;
31442;SDS011;18065;55.876;9.830;2022-11-27T09:57:04;2.05;;;1.65;;
31442;SDS011;18065;55.876;9.830;2022-11-27T09:59:35;2.85;;;1.98;;
31442;SDS011;18065;55.876;9.830;2022-11-27T10:02:12;2.80;;;1.50;;
31442;SDS011;18065;55.876;9.830;2022-11-27T10:04:46;3.33;;;2.05;;
31442;SDS011;18065;55.876;9.830;2022-11-27T10:07:18;2.47;;;1.52;;
31442;SDS011;18065;55.876;9.830;2022-11-27T10:10:00;2.60;;;1.70;;
31442;SDS011;18065;55.876;9.830;2022-11-27T10:12:40;2.53;;;1.90;;
31442;SDS011;18065;55.876;9.830;2022-11-27T10:15:18;2.25;;;1.63;;
31442;SDS011;18065;55.876;9.830;2022-11-27T10:17:55;2.00;;;1.75;;
31442;SDS011;18065;55.876;9.830;2022-11-27T10:20:33;2.08;;;1.75;;
31442;SDS011;18065;55.876;9.830;2022-11-27T10:23:09;2.40;;;1.75;;
31442;SDS011;18065;55.876;9.830;2022-11-27T10:25:48;2.60;;;1.70;;
31442;SDS011;18065;55.876;9.830;2022-11-27T10:28:21;2.15;;;1.90;;
31442;SDS011;18065;55.876;9.830;2022-11-27T10:30:58;2.17;;;1.73;;
31442;SDS011;18065;55.876;9.830;2022-11-27T10:33:33;2.22;;;1.52;;
31442;SDS011;18065;55.876;9.830;2022-11-27T10:36:12;2.78;;;2.00;;
31442;SDS011;18065;55.876;9.830;2022-11-27T10:38:43;4.20;;;2.13;;
31442;SDS011;18065;55.876;9.830;2022-11-27T10:41:14;3.13;;;1.90;;
31442;SDS011;18065;55.876;9.830;2022-11-27T10:43:46;3.15;;;1.83;;
31442;SDS011;18065;55.876;9.830;2022-11-27T10:46:21;4.22;;;2.47;;
31442;SDS011;18065;55.876;9.830;2022-11-27T10:48:56;2.78;;;1.90;;
31442;SDS011;18065;55.876;9.830;2022-11-27T10:51:30;3.30;;;1.92;;
31442;SDS011;18065;55.876;9.830;2022-11-27T10:54:01;3.40;;;2.03;;
31442;SDS011;18065;55.876;9.830;2022-11-27T10:56:38;3.45;;;2.30;;
31442;SDS011;18065;55.876;9.830;2022-11-27T10:59:16;2.38;;;1.75;;
31442;SDS011;18065;55.876;9.830;2022-11-27T11:01:50;3.08;;;1.92;;
31442;SDS011;18065;55.876;9.830;2022-11-27T11:04:24;3.97;;;2.42;;
31442;SDS011;18065;55.876;9.830;2022-11-27T11:06:57;2.55;;;1.80;;
31442;SDS011;18065;55.876;9.830;2022-11-27T11:09:26;5.07;;;2.25;;
31442;SDS011;18065;55.876;9.830;2022-11-27T11:12:05;2.25;;;1.70;;
31442;SDS011;18065;55.876;9.830;2022-11-27T11:14:34;3.63;;;2.10;;
31442;SDS011;18065;55.876;9.830;2022-11-27T11:17:13;3.75;;;2.05;;
31442;SDS011;18065;55.876;9.830;2022-11-27T11:19:43;3.38;;;2.00;;
31442;SDS011;18065;55.876;9.830;2022-11-27T11:22:15;2.10;;;1.70;;
31442;SDS011;18065;55.876;9.830;2022-11-27T11:24:44;3.42;;;2.10;;
31442;SDS011;18065;55.876;9.830;2022-11-27T11:27:21;3.58;;;2.05;;
31442;SDS011;18065;55.876;9.830;2022-11-27T11:29:54;2.55;;;1.85;;
31442;SDS011;18065;55.876;9.830;2022-11-27T11:32:30;2.17;;;1.67;;
31442;SDS011;18065;55.876;9.830;2022-11-27T11:35:00;2.42;;;1.70;;
31442;SDS011;18065;55.876;9.830;2022-11-27T11:37:37;3.55;;;1.95;;
31442;SDS011;18065;55.876;9.830;2022-11-27T11:40:20;4.90;;;2.00;;
31442;SDS011;18065;55.876;9.830;2022-11-27T11:42:51;3.13;;;1.85;;
31442;SDS011;18065;55.876;9.830;2022-11-27T11:45:22;3.13;;;1.80;;
31442;SDS011;18065;55.876;9.830;2022-11-27T11:47:52;3.47;;;1.77;;
31442;SDS011;18065;55.876;9.830;2022-11-27T11:50:25;2.85;;;1.70;;
31442;SDS011;18065;55.876;9.830;2022-11-27T11:53:04;3.55;;;1.95;;
31442;SDS011;18065;55.876;9.830;2022-11-27T11:55:41;3.92;;;2.25;;
31442;SDS011;18065;55.876;9.830;2022-11-27T11:58:20;3.17;;;2.03;;
31442;SDS011;18065;55.876;9.830;2022-11-27T12:01:04;2.87;;;1.80;;
31442;SDS011;18065;55.876;9.830;2022-11-27T12:03:49;2.55;;;2.00;;
31442;SDS011;18065;55.876;9.830;2022-11-27T12:06:31;5.32;;;1.60;;
31442;SDS011;18065;55.876;9.830;2022-11-27T12:09:13;2.30;;;1.40;;
31442;SDS011;18065;55.876;9.830;2022-11-27T12:11:53;2.60;;;2.00;;
31442;SDS011;18065;55.876;9.830;2022-11-27T12:14:34;2.72;;;2.15;;
31442;SDS011;18065;55.876;9.830;2022-11-27T12:17:11;2.25;;;1.70;;
31442;SDS011;18065;55.876;9.830;2022-11-27T12:20:02;4.50;;;1.95;;
31442;SDS011;18065;55.876;9.830;2022-11-27T12:22:55;2.90;;;1.67;;
31442;SDS011;18065;55.876;9.830;2022-11-27T12:25:44;4.78;;;2.38;;
31442;SDS011;18065;55.876;9.830;2022-11-27T12:28:29;3.28;;;1.77;;
31442;SDS011;18065;55.876;9.830;2022-11-27T12:31:12;4.47;;;2.00;;
31442;SDS011;18065;55.876;9.830;2022-11-27T12:33:51;5.28;;;2.00;;
31442;SDS011;18065;55.876;9.830;2022-11-27T12:39:30;3.55;;;1.98;;
31442;SDS011;18065;55.876;9.830;2022-11-27T12:42:05;4.78;;;2.75;;
31442;SDS011;18065;55.876;9.830;2022-11-27T12:44:46;4.00;;;2.10;;
31442;SDS011;18065;55.876;9.830;2022-11-27T12:47:22;4.00;;;2.13;;
31442;SDS011;18065;55.876;9.830;2022-11-27T12:49:54;6.63;;;2.53;;
31442;SDS011;18065;55.876;9.830;2022-11-27T12:52:30;5.05;;;2.30;;
31442;SDS011;18065;55.876;9.830;2022-11-27T12:55:05;5.60;;;2.45;;
31442;SDS011;18065;55.876;9.830;2022-11-27T12:57:43;4.07;;;2.35;;
31442;SDS011;18065;55.876;9.830;2022-11-27T13:00:15;4.40;;;2.50;;
31442;SDS011;18065;55.876;9.830;2022-11-27T13:02:48;3.83;;;2.15;;
31442;SDS011;18065;55.876;9.830;2022-11-27T13:05:25;5.03;;;2.30;;
31442;SDS011;18065;55.876;9.830;2022-11-27T13:07:59;5.70;;;2.38;;
31442;SDS011;18065;55.876;9.830;2022-11-27T13:10:33;8.90;;;2.67;;
31442;SDS011;18065;55.876;9.830;2022-11-27T13:13:09;3.53;;;2.28;;
31442;SDS011;18065;55.876;9.830;2022-11-27T13:15:43;6.78;;;2.47;;
31442;SDS011;18065;55.876;9.830;2022-11-27T13:18:17;4.88;;;2.47;;
31442;SDS011;18065;55.876;9.830;2022-11-27T13:20:49;3.50;;;2.33;;
31442;SDS011;18065;55.876;9.830;2022-11-27T13:23:19;4.25;;;2.67;;
31442;SDS011;18065;55.876;9.830;2022-11-27T13:25:49;3.95;;;2.40;;
31442;SDS011;18065;55.876;9.830;2022-11-27T13:28:27;4.28;;;2.35;;
31442;SDS011;18065;55.876;9.830;2022-11-27T13:31:02;4.50;;;2.42;;
31442;SDS011;18065;55.876;9.830;2022-11-27T13:33:34;4.45;;;2.75;;
31442;SDS011;18065;55.876;9.830;2022-11-27T13:36:05;4.47;;;2.50;;
31442;SDS011;18065;55.876;9.830;2022-11-27T13:38:44;3.50;;;2.17;;
31442;SDS011;18065;55.876;9.830;2022-11-27T13:41:20;4.05;;;2.28;;
31442;SDS011;18065;55.876;9.830;2022-11-27T13:43:53;4.22;;;2.38;;
31442;SDS011;18065;55.876;9.830;2022-11-27T13:46:22;5.15;;;2.47;;
31442;SDS011;18065;55.876;9.830;2022-11-27T13:48:54;4.28;;;2.20;;
31442;SDS011;18065;55.876;9.830;2022-11-27T13:51:28;4.68;;;2.60;;
31442;SDS011;18065;55.876;9.830;2022-11-27T13:54:08;3.65;;;2.20;;
31442;SDS011;18065;55.876;9.830;2022-11-27T13:56:39;7.28;;;2.90;;
31442;SDS011;18065;55.876;9.830;2022-11-27T13:59:15;3.80;;;2.05;;
31442;SDS011;18065;55.876;9.830;2022-11-27T14:01:52;5.85;;;2.40;;
31442;SDS011;18065;55.876;9.830;2022-11-27T14:04:25;3.83;;;2.30;;
31442;SDS011;18065;55.876;9.830;2022-11-27T14:06:55;5.00;;;2.20;;
31442;SDS011;18065;55.876;9.830;2022-11-27T14:09:31;4.33;;;1.87;;
31442;SDS011;18065;55.876;9.830;2022-11-27T14:12:12;4.45;;;2.47;;
31442;SDS011;18065;55.876;9.830;2022-11-27T14:14:54;3.70;;;2.17;;
31442;SDS011;18065;55.876;9.830;2022-11-27T14:17:26;3.53;;;2.38;;
31442;SDS011;18065;55.876;9.830;2022-11-27T14:20:04;2.90;;;2.17;;
31442;SDS011;18065;55.876;9.830;2022-11-27T14:22:47;5.75;;;2.75;;
31442;SDS011;18065;55.876;9.830;2022-11-27T14:25:19;4.03;;;2.20;;
31442;SDS011;18065;55.876;9.830;2022-11-27T14:27:53;4.80;;;2.28;;
31442;SDS011;18065;55.876;9.830;2022-11-27T14:30:30;3.35;;;2.08;;
31442;SDS011;18065;55.876;9.830;2022-11-27T14:33:02;5.03;;;2.15;;
31442;SDS011;18065;55.876;9.830;2022-11-27T14:35:32;4.25;;;2.22;;
31442;SDS011;18065;55.876;9.830;2022-11-27T14:38:08;4.28;;;2.38;;
31442;SDS011;18065;55.876;9.830;2022-11-27T14:40:37;3.83;;;2.30;;
31442;SDS011;18065;55.876;9.830;2022-11-27T14:43:06;4.00;;;2.42;;
31442;SDS011;18065;55.876;9.830;2022-11-27T14:45:40;4.95;;;2.65;;
31442;SDS011;18065;55.876;9.830;2022-11-27T14:48:14;5.22;;;2.30;;
31442;SDS011;18065;55.876;9.830;2022-11-27T14:50:48;2.83;;;2.13;;
31442;SDS011;18065;55.876;9.830;2022-11-27T14:53:18;2.63;;;1.98;;
31442;SDS011;18065;55.876;9.830;2022-11-27T14:55:48;3.90;;;2.20;;
31442;SDS011;18065;55.876;9.830;2022-11-27T14:58:19;4.88;;;2.88;;
31442;SDS011;18065;55.876;9.830;2022-11-27T15:00:54;5.70;;;2.92;;
31442;SDS011;18065;55.876;9.830;2022-11-27T15:03:25;4.43;;;2.53;;
31442;SDS011;18065;55.876;9.830;2022-11-27T15:05:55;3.83;;;2.45;;
31442;SDS011;18065;55.876;9.830;2022-11-27T15:08:25;5.15;;;3.10;;
31442;SDS011;18065;55.876;9.830;2022-11-27T15:10:56;6.75;;;3.28;;
31442;SDS011;18065;55.876;9.830;2022-11-27T15:13:27;6.75;;;3.10;;
31442;SDS011;18065;55.876;9.830;2022-11-27T15:16:00;5.55;;;3.25;;
31442;SDS011;18065;55.876;9.830;2022-11-27T15:18:32;5.38;;;3.35;;
31442;SDS011;18065;55.876;9.830;2022-11-27T15:21:07;6.57;;;3.63;;
31442;SDS011;18065;55.876;9.830;2022-11-27T15:23:42;6.03;;;3.40;;
31442;SDS011;18065;55.876;9.830;2022-11-27T15:26:14;5.28;;;3.63;;
31442;SDS011;18065;55.876;9.830;2022-11-27T15:28:56;6.32;;;4.05;;